createdAt,value
2023-04-08T00:01:53.703Z,53.49
2023-04-08T00:04:23.478Z,52.78
2023-04-08T00:06:51.816Z,53.40
2023-04-08T00:09:19.985Z,53.49
2023-04-08T00:11:48.060Z,52.97
2023-04-08T00:14:16.386Z,53.67
2023-04-08T00:16:44.495Z,54.51
2023-04-08T00:19:12.646Z,54.60
2023-04-08T00:21:42.137Z,55.05
2023-04-08T00:24:10.894Z,53.80
2023-04-08T00:26:38.903Z,54.11
2023-04-08T00:29:07.083Z,54.08
2023-04-08T00:31:35.266Z,54.22
2023-04-08T00:34:03.499Z,54.62
2023-04-08T00:36:31.657Z,54.82
2023-04-08T00:39:01.070Z,54.49
2023-04-08T00:41:29.184Z,54.61
2023-04-08T00:43:57.330Z,54.80
2023-04-08T00:46:26.922Z,54.81
2023-04-08T00:48:56.303Z,55.32
2023-04-08T00:51:24.489Z,54.53
2023-04-08T00:53:52.596Z,54.51
2023-04-08T00:56:22.574Z,55.17
2023-04-08T00:58:51.712Z,55.60
2023-04-08T01:01:27.481Z,54.89
2023-04-08T01:04:03.290Z,55.05
2023-04-08T01:06:42.527Z,55.29
2023-04-08T01:09:13.575Z,54.67
2023-04-08T01:11:45.871Z,55.74
2023-04-08T01:14:20.763Z,55.86
2023-04-08T01:16:49.352Z,56.01
2023-04-08T01:19:28.172Z,55.75
2023-04-08T01:22:03.161Z,56.41
2023-04-08T01:24:35.062Z,56.39
2023-04-08T01:27:06.839Z,56.59
2023-04-08T01:29:36.679Z,55.94
2023-04-08T01:32:05.753Z,56.03
2023-04-08T01:34:35.946Z,56.83
2023-04-08T01:37:05.842Z,56.47
2023-04-08T01:39:36.095Z,55.97
2023-04-08T01:42:06.298Z,55.82
2023-04-08T01:44:34.745Z,56.69
2023-04-08T01:47:04.075Z,56.58
2023-04-08T01:49:32.878Z,56.16
2023-04-08T01:52:03.124Z,56.67
2023-04-08T01:54:31.211Z,56.81
2023-04-08T01:57:01.668Z,56.81
2023-04-08T01:59:35.970Z,56.50
2023-04-08T02:02:07.169Z,57.01
2023-04-08T02:04:36.063Z,57.32
2023-04-08T02:07:06.006Z,57.64
2023-04-08T02:09:34.578Z,56.95
2023-04-08T02:12:02.667Z,56.68
2023-04-08T02:14:32.382Z,56.27
2023-04-08T02:17:06.899Z,56.46
2023-04-08T02:19:42.809Z,56.57
2023-04-08T02:22:17.945Z,56.29
2023-04-08T02:24:47.460Z,56.35
2023-04-08T02:27:16.325Z,56.74
2023-04-08T02:29:48.504Z,55.78
2023-04-08T02:32:18.091Z,55.67
2023-04-08T02:34:46.944Z,56.15
2023-04-08T02:37:15.043Z,55.82
2023-04-08T02:39:43.073Z,56.43
2023-04-08T02:42:12.029Z,56.54
2023-04-08T02:44:40.116Z,56.26
2023-04-08T02:47:09.740Z,56.31
2023-04-08T02:49:37.796Z,56.34
2023-04-08T02:52:05.973Z,56.09
2023-04-08T02:54:34.073Z,56.80
2023-04-08T02:57:02.244Z,56.30
2023-04-08T02:59:30.340Z,57.01
2023-04-08T03:01:58.472Z,56.83
2023-04-08T03:04:27.967Z,56.45
2023-04-08T03:06:56.318Z,56.51
2023-04-08T03:09:24.522Z,56.10
2023-04-08T03:11:54.987Z,56.66
2023-04-08T03:14:23.137Z,56.05
2023-04-08T03:16:51.311Z,56.96
2023-04-08T03:19:19.416Z,56.85
2023-04-08T03:21:48.944Z,56.55
2023-04-08T03:24:17.048Z,56.14
2023-04-08T03:26:45.173Z,56.52
2023-04-08T03:29:13.238Z,56.39
2023-04-08T03:31:41.949Z,56.18
2023-04-08T03:34:10.104Z,56.64
2023-04-08T03:36:38.193Z,55.88
2023-04-08T03:39:07.694Z,56.19
2023-04-08T03:41:36.009Z,56.28
2023-04-08T03:44:04.118Z,56.56
2023-04-08T03:46:32.433Z,56.98
2023-04-08T03:49:00.673Z,56.55
2023-04-08T03:51:28.877Z,56.84
2023-04-08T03:53:56.942Z,56.50
2023-04-08T03:56:26.494Z,56.79
2023-04-08T03:58:54.591Z,56.53
2023-04-08T04:01:22.685Z,56.44
2023-04-08T04:03:50.773Z,57.06
2023-04-08T04:06:18.881Z,56.89
2023-04-08T04:08:47.045Z,56.46
2023-04-08T04:11:15.178Z,56.93
2023-04-08T04:13:44.673Z,56.36
2023-04-08T04:16:12.805Z,56.43
2023-04-08T04:18:41.031Z,57.10
2023-04-08T04:21:09.668Z,56.86
2023-04-08T04:23:37.805Z,57.24
2023-04-08T04:26:10.040Z,56.89
2023-04-08T04:28:38.294Z,57.09
2023-04-08T04:31:07.882Z,56.89
2023-04-08T04:33:36.048Z,57.37
2023-04-08T04:36:04.232Z,57.01
2023-04-08T04:38:32.386Z,56.81
2023-04-08T04:41:01.754Z,56.75
2023-04-08T04:43:29.905Z,56.99
2023-04-08T04:45:58.318Z,56.63
2023-04-08T04:48:27.942Z,56.55
2023-04-08T04:50:56.594Z,57.13
2023-04-08T04:53:24.705Z,56.82
2023-04-08T04:55:52.925Z,56.74
2023-04-08T04:58:20.945Z,56.94
2023-04-08T05:00:48.968Z,56.49
2023-04-08T05:03:17.218Z,56.31
2023-04-08T05:05:46.780Z,56.69
2023-04-08T05:08:14.792Z,56.51
2023-04-08T05:10:43.274Z,56.94
2023-04-08T05:13:11.288Z,56.77
2023-04-08T05:15:39.398Z,56.71
2023-04-08T05:18:07.492Z,56.93
2023-04-08T05:20:35.584Z,56.64
2023-04-08T05:23:05.128Z,56.74
2023-04-08T05:25:33.165Z,56.45
2023-04-08T05:28:01.296Z,56.69
2023-04-08T05:30:29.498Z,56.46
2023-04-08T05:33:00.167Z,56.94
2023-04-08T05:35:28.862Z,56.52
2023-04-08T05:37:56.989Z,56.96
2023-04-08T05:40:26.916Z,56.90
2023-04-08T05:42:54.981Z,56.95
2023-04-08T05:45:22.995Z,57.03
2023-04-08T05:47:51.114Z,57.35
2023-04-08T05:50:19.381Z,57.21
2023-04-08T05:52:47.777Z,57.19
2023-04-08T05:55:16.140Z,57.07
2023-04-08T05:57:45.672Z,57.43
2023-04-08T06:00:14.302Z,57.18
2023-04-08T06:02:42.487Z,57.13
2023-04-08T06:05:11.155Z,57.50
2023-04-08T06:07:39.205Z,57.25
2023-04-08T06:10:09.100Z,57.30
2023-04-08T06:12:38.718Z,57.23
2023-04-08T06:15:09.872Z,57.14
2023-04-08T06:17:38.356Z,57.51
2023-04-08T06:20:09.402Z,57.44
2023-04-08T06:22:38.014Z,56.73
2023-04-08T06:25:07.245Z,56.52
2023-04-08T06:27:35.591Z,57.04
2023-04-08T06:30:03.876Z,57.05
2023-04-08T06:32:33.413Z,56.36
2023-04-08T06:35:01.929Z,56.42
2023-04-08T06:37:30.005Z,56.08
2023-04-08T06:39:58.170Z,56.34
2023-04-08T06:42:26.317Z,56.67
2023-04-08T06:44:54.397Z,56.26
2023-04-08T06:47:22.539Z,56.72
2023-04-08T06:49:52.856Z,56.21
2023-04-08T06:52:21.304Z,55.74
2023-04-08T06:54:49.381Z,56.47
2023-04-08T06:57:17.508Z,56.27
2023-04-08T06:59:46.858Z,55.66
2023-04-08T07:02:16.041Z,55.33
2023-04-08T07:04:46.693Z,56.02
2023-04-08T07:07:16.469Z,55.94
2023-04-08T07:09:46.192Z,55.15
2023-04-08T07:12:14.466Z,54.96
2023-04-08T07:14:42.569Z,55.17
2023-04-08T07:17:10.780Z,54.61
2023-04-08T07:19:39.030Z,54.73
2023-04-08T07:22:07.190Z,55.26
2023-04-08T07:24:36.764Z,54.41
2023-04-08T07:27:04.970Z,50.92
2023-04-08T07:29:33.170Z,47.46
2023-04-08T07:32:01.314Z,43.98
2023-04-08T07:34:29.385Z,41.87
2023-04-08T07:36:57.496Z,38.87
2023-04-08T07:39:25.580Z,36.58
2023-04-08T07:41:55.425Z,34.04
2023-04-08T07:44:23.481Z,32.50
2023-04-08T07:46:51.945Z,30.67
2023-04-08T07:49:20.157Z,29.14
2023-04-08T07:51:48.264Z,28.15
2023-04-08T07:54:17.587Z,27.46
2023-04-08T07:56:45.916Z,26.24
2023-04-08T07:59:15.589Z,25.44
2023-04-08T08:01:43.836Z,24.73
2023-04-08T08:04:12.022Z,23.44
2023-04-08T08:06:40.266Z,22.40
2023-04-08T08:09:08.410Z,22.25
2023-04-08T08:11:36.557Z,21.20
2023-04-08T08:14:04.690Z,21.14
2023-04-08T08:16:34.909Z,20.09
2023-04-08T08:19:04.608Z,19.16
2023-04-08T08:21:32.768Z,19.12
2023-04-08T08:24:00.910Z,18.75
2023-04-08T08:26:29.102Z,18.36
2023-04-08T08:28:57.381Z,17.66
2023-04-08T08:31:25.497Z,16.75
2023-04-08T08:33:54.995Z,16.64
2023-04-08T08:36:23.173Z,16.49
2023-04-08T08:38:52.003Z,15.94
2023-04-08T08:41:20.061Z,16.34
2023-04-08T08:43:49.090Z,15.90
2023-04-08T08:46:19.358Z,15.54
2023-04-08T08:48:47.600Z,15.12
2023-04-08T08:51:17.209Z,14.92
2023-04-08T08:53:45.657Z,14.16
2023-04-08T08:56:18.407Z,14.18
2023-04-08T08:58:47.854Z,14.05
2023-04-08T09:01:33.287Z,13.59
2023-04-08T09:04:14.117Z,13.55
2023-04-08T09:06:44.526Z,13.77
2023-04-08T09:09:12.901Z,13.43
2023-04-08T09:11:42.705Z,12.87
2023-04-08T09:14:24.127Z,11.97
2023-04-08T09:16:53.454Z,11.70
2023-04-08T09:19:21.862Z,11.43
2023-04-08T09:22:09.697Z,10.91
2023-04-08T09:24:38.840Z,10.76
2023-04-08T09:27:07.047Z,10.38
2023-04-08T09:29:38.187Z,10.27
2023-04-08T09:32:08.013Z,10.00
2023-04-08T09:34:36.770Z,9.99
2023-04-08T09:37:04.971Z,9.62
2023-04-08T09:39:34.537Z,9.68
2023-04-08T09:42:08.338Z,9.30
2023-04-08T09:44:39.325Z,8.99
2023-04-08T09:47:14.033Z,8.68
2023-04-08T09:49:47.787Z,8.17
2023-04-08T09:52:22.365Z,7.76
2023-04-08T09:54:56.184Z,7.90
2023-04-08T09:57:31.440Z,7.88
2023-04-08T10:00:05.644Z,7.33
2023-04-08T10:02:41.069Z,7.54
2023-04-08T10:05:09.673Z,7.05
2023-04-08T10:07:38.025Z,6.78
2023-04-08T10:10:11.080Z,6.71
2023-04-08T10:12:39.537Z,6.36
2023-04-08T10:15:26.189Z,6.00
2023-04-08T10:17:54.987Z,5.98
2023-04-08T10:20:46.556Z,5.87
2023-04-08T10:23:16.666Z,5.99
2023-04-08T10:25:48.032Z,5.53
2023-04-08T10:28:27.332Z,5.55
2023-04-08T10:30:57.518Z,5.85
2023-04-08T10:33:34.975Z,5.59
2023-04-08T10:36:11.910Z,5.71
2023-04-08T10:38:42.254Z,5.92
2023-04-08T10:41:14.451Z,5.86
2023-04-08T10:43:47.242Z,5.58
2023-04-08T10:46:15.512Z,5.59
2023-04-08T10:48:43.699Z,5.55
2023-04-08T10:51:12.273Z,5.76
2023-04-08T10:53:40.956Z,5.97
2023-04-08T10:56:13.509Z,6.03
2023-04-08T10:58:51.659Z,6.18
2023-04-08T11:01:20.661Z,6.30
2023-04-08T11:03:49.202Z,6.56
2023-04-08T11:06:17.925Z,7.51
2023-04-08T11:08:46.248Z,8.45
2023-04-08T11:11:14.401Z,10.61
2023-04-08T11:13:51.563Z,12.19
2023-04-08T11:16:23.244Z,13.83
2023-04-08T11:18:52.362Z,15.83
2023-04-08T11:21:22.392Z,17.44
2023-04-08T11:23:51.893Z,18.35
2023-04-08T11:26:21.199Z,19.12
2023-04-08T11:28:51.770Z,20.04
2023-04-08T11:31:24.674Z,20.61
2023-04-08T11:33:55.582Z,20.31
2023-04-08T11:36:23.750Z,20.47
2023-04-08T11:38:54.689Z,20.81
2023-04-08T11:41:23.194Z,21.25
2023-04-08T11:43:58.347Z,21.88
2023-04-08T11:46:27.971Z,22.11
2023-04-08T11:49:08.063Z,22.67
2023-04-08T11:51:54.883Z,23.32
2023-04-08T11:54:29.750Z,23.90
2023-04-08T11:56:58.431Z,23.77
2023-04-08T11:59:29.004Z,24.27
2023-04-08T12:01:59.373Z,23.94
2023-04-08T12:04:27.754Z,23.68
2023-04-08T12:06:58.154Z,23.90
2023-04-08T12:09:27.407Z,23.70
2023-04-08T12:11:56.848Z,23.95
2023-04-08T12:14:28.092Z,24.24
2023-04-08T12:16:56.630Z,23.87
2023-04-08T12:19:27.093Z,23.91
2023-04-08T12:21:55.221Z,24.19
2023-04-08T12:24:23.307Z,24.20
2023-04-08T12:26:51.347Z,24.36
2023-04-08T12:29:19.420Z,24.57
2023-04-08T12:31:48.947Z,24.47
2023-04-08T12:34:17.318Z,24.88
2023-04-08T12:36:47.543Z,25.29
2023-04-08T12:39:15.918Z,24.93
2023-04-08T12:41:44.083Z,24.93
2023-04-08T12:44:12.162Z,25.02
2023-04-08T12:46:40.268Z,25.08
2023-04-08T12:49:09.035Z,25.50
2023-04-08T12:51:37.404Z,25.42
2023-04-08T12:54:06.889Z,25.34
2023-04-08T12:56:35.210Z,25.54
2023-04-08T12:59:03.424Z,25.03
2023-04-08T13:01:31.863Z,25.31
2023-04-08T13:04:00.359Z,25.19
2023-04-08T13:06:28.808Z,25.45
2023-04-08T13:08:57.048Z,25.20
2023-04-08T13:11:26.665Z,25.55
2023-04-08T13:13:54.800Z,25.52
2023-04-08T13:16:23.021Z,25.32
2023-04-08T13:18:51.312Z,25.27
2023-04-08T13:21:19.686Z,25.31
2023-04-08T13:23:47.821Z,25.27
2023-04-08T13:26:15.965Z,25.41
2023-04-08T13:28:56.783Z,25.51
2023-04-08T13:31:26.187Z,25.53
2023-04-08T13:33:57.572Z,25.89
2023-04-08T13:36:26.991Z,26.09
2023-04-08T13:38:55.022Z,26.17
2023-04-08T13:41:23.235Z,26.03
2023-04-08T13:43:52.734Z,25.94
2023-04-08T13:46:21.063Z,25.92
2023-04-08T13:48:49.478Z,25.74
2023-04-08T13:51:17.930Z,25.82
2023-04-08T13:53:46.075Z,25.96
2023-04-08T13:56:14.384Z,26.21
2023-04-08T13:58:42.901Z,26.30
2023-04-08T14:01:13.310Z,26.44
2023-04-08T14:03:41.422Z,26.52
2023-04-08T14:06:09.449Z,26.53
2023-04-08T14:08:37.445Z,26.64
2023-04-08T14:11:05.679Z,26.60
2023-04-08T14:13:33.986Z,26.70
2023-04-08T14:16:03.123Z,26.31
2023-04-08T14:18:32.620Z,26.26
2023-04-08T14:21:00.739Z,26.28
2023-04-08T14:23:28.868Z,26.04
2023-04-08T14:25:56.912Z,26.12
2023-04-08T14:28:25.064Z,25.58
2023-04-08T14:30:53.147Z,25.09
2023-04-08T14:33:21.227Z,25.12
2023-04-08T14:35:50.834Z,25.00
2023-04-08T14:38:20.703Z,25.00
2023-04-08T14:40:48.771Z,25.33
2023-04-08T14:43:16.837Z,25.69
2023-04-08T14:45:45.194Z,25.88
2023-04-08T14:48:13.285Z,26.23
2023-04-08T14:50:41.381Z,26.06
2023-04-08T14:53:11.114Z,25.84
2023-04-08T14:55:39.332Z,26.15
2023-04-08T14:58:07.362Z,26.65
2023-04-08T15:00:35.496Z,26.92
2023-04-08T15:03:04.189Z,26.36
2023-04-08T15:05:33.038Z,26.35
2023-04-08T15:08:02.584Z,25.46
2023-04-08T15:10:32.511Z,25.31
2023-04-08T15:13:00.692Z,25.15
2023-04-08T15:15:28.938Z,24.97
2023-04-08T15:17:57.065Z,25.03
2023-04-08T15:20:25.249Z,25.52
2023-04-08T15:22:53.312Z,25.89
2023-04-08T15:25:21.656Z,26.07
2023-04-08T15:27:51.262Z,25.93
2023-04-08T15:30:24.507Z,26.28
2023-04-08T15:32:52.877Z,26.47
2023-04-08T15:35:21.040Z,26.40
2023-04-08T15:37:49.123Z,26.69
2023-04-08T15:40:17.517Z,26.22
2023-04-08T15:42:46.187Z,26.35
2023-04-08T15:45:15.875Z,26.33
2023-04-08T15:47:44.056Z,25.97
2023-04-08T15:50:13.094Z,26.50
2023-04-08T15:52:41.594Z,26.43
2023-04-08T15:55:10.073Z,26.22
2023-04-08T15:57:38.170Z,26.11
2023-04-08T16:00:10.910Z,26.36
2023-04-08T16:02:40.898Z,26.36
2023-04-08T16:05:09.696Z,26.76
2023-04-08T16:07:37.832Z,26.60
2023-04-08T16:10:06.859Z,26.75
2023-04-08T16:12:35.123Z,26.44
2023-04-08T16:15:03.312Z,26.51
2023-04-08T16:17:31.442Z,26.52
2023-04-08T16:20:01.049Z,26.50
2023-04-08T16:22:29.152Z,26.59
2023-04-08T16:24:57.222Z,26.71
2023-04-08T16:27:25.442Z,27.03
2023-04-08T16:29:53.529Z,26.81
2023-04-08T16:32:22.144Z,26.79
2023-04-08T16:34:50.281Z,26.79
2023-04-08T16:37:19.791Z,26.88
2023-04-08T16:39:48.121Z,26.98
2023-04-08T16:42:16.716Z,26.97
2023-04-08T16:44:44.848Z,27.12
2023-04-08T16:47:12.945Z,27.30
2023-04-08T16:49:40.999Z,28.00
2023-04-08T16:52:09.667Z,28.17
2023-04-08T16:54:39.160Z,28.28
2023-04-08T16:57:07.718Z,28.56
2023-04-08T16:59:36.042Z,29.18
2023-04-08T17:02:04.204Z,29.60
2023-04-08T17:04:32.343Z,30.22
2023-04-08T17:07:00.521Z,30.21
2023-04-08T17:09:28.787Z,30.93
2023-04-08T17:11:58.353Z,30.92
2023-04-08T17:14:27.807Z,31.65
2023-04-08T17:16:56.141Z,31.71
2023-04-08T17:19:24.254Z,32.46
2023-04-08T17:21:52.362Z,31.86
2023-04-08T17:24:20.730Z,32.73
2023-04-08T17:26:49.446Z,33.06
2023-04-08T17:29:19.127Z,33.39
2023-04-08T17:31:47.329Z,33.88
2023-04-08T17:34:16.111Z,33.71
2023-04-08T17:36:44.767Z,34.06
2023-04-08T17:39:12.882Z,33.74
2023-04-08T17:41:42.041Z,34.24
2023-04-08T17:44:11.097Z,34.35
2023-04-08T17:46:41.147Z,34.80
2023-04-08T17:49:11.294Z,34.96
2023-04-08T17:51:39.593Z,35.00
2023-04-08T17:54:07.699Z,35.73
2023-04-08T17:56:36.153Z,35.20
2023-04-08T17:59:04.524Z,35.93
2023-04-08T18:01:32.630Z,35.75
2023-04-08T18:04:02.315Z,35.64
2023-04-08T18:06:32.073Z,35.79
2023-04-08T18:09:00.425Z,36.22
2023-04-08T18:11:28.601Z,36.07
2023-04-08T18:13:56.750Z,36.70
2023-04-08T18:16:25.562Z,36.41
2023-04-08T18:18:54.264Z,36.24
2023-04-08T18:21:24.501Z,36.84
2023-04-08T18:23:53.020Z,37.03
2023-04-08T18:26:21.758Z,36.97
2023-04-08T18:28:50.114Z,36.71
2023-04-08T18:31:18.462Z,36.86
2023-04-08T18:33:47.645Z,37.09
2023-04-08T18:36:16.226Z,37.08
2023-04-08T18:38:46.180Z,37.16
2023-04-08T18:41:15.656Z,37.45
2023-04-08T18:43:43.838Z,37.11
2023-04-08T18:46:12.291Z,37.16
2023-04-08T18:48:40.412Z,37.81
2023-04-08T18:51:08.867Z,37.89
2023-04-08T18:53:37.364Z,38.00
2023-04-08T18:56:07.837Z,37.89
2023-04-08T18:58:36.921Z,37.89
2023-04-08T19:01:08.171Z,38.21
2023-04-08T19:03:36.296Z,38.96
2023-04-08T19:06:06.817Z,38.72
2023-04-08T19:08:35.356Z,38.81
2023-04-08T19:11:04.083Z,38.80
2023-04-08T19:13:33.921Z,38.43
2023-04-08T19:16:02.020Z,38.74
2023-04-08T19:18:30.135Z,38.95
2023-04-08T19:20:58.270Z,39.48
2023-04-08T19:23:26.456Z,38.73
2023-04-08T19:25:54.580Z,39.20
2023-04-08T19:28:22.834Z,39.76
2023-04-08T19:30:52.507Z,39.05
2023-04-08T19:33:21.197Z,39.96
2023-04-08T19:35:49.890Z,39.15
2023-04-08T19:38:17.972Z,38.98
2023-04-08T19:40:48.020Z,39.10
2023-04-08T19:43:16.566Z,38.88
2023-04-08T19:45:44.966Z,39.08
2023-04-08T19:48:14.605Z,39.43
2023-04-08T19:50:42.807Z,38.69
2023-04-08T19:53:11.137Z,39.21
2023-04-08T19:55:39.536Z,40.00
2023-04-08T19:58:08.030Z,40.11
2023-04-08T20:00:37.538Z,40.30
2023-04-08T20:03:06.337Z,40.43
2023-04-08T20:05:36.143Z,39.76
2023-04-08T20:08:04.348Z,40.34
2023-04-08T20:10:32.472Z,39.81
2023-04-08T20:13:00.576Z,39.79
2023-04-08T20:15:28.667Z,40.72
2023-04-08T20:17:58.395Z,40.18
2023-04-08T20:20:28.949Z,40.84
2023-04-08T20:23:00.016Z,40.32
2023-04-08T20:25:28.486Z,40.78
2023-04-08T20:27:56.634Z,41.31
2023-04-08T20:30:24.879Z,40.68
2023-04-08T20:32:53.117Z,41.67
2023-04-08T20:35:22.136Z,42.08
2023-04-08T20:37:50.337Z,41.30
2023-04-08T20:40:19.989Z,42.16
2023-04-08T20:42:48.018Z,41.83
2023-04-08T20:45:16.193Z,42.77
2023-04-08T20:47:46.228Z,41.92
2023-04-08T20:50:14.461Z,41.64
2023-04-08T20:52:42.616Z,41.91
2023-04-08T20:55:11.282Z,42.56
2023-04-08T20:57:42.093Z,42.75
2023-04-08T21:00:11.300Z,42.02
2023-04-08T21:02:40.338Z,41.75
2023-04-08T21:05:09.140Z,41.67
2023-04-08T21:07:38.576Z,42.67
2023-04-08T21:10:08.083Z,42.47
2023-04-08T21:12:36.239Z,42.12
2023-04-08T21:15:06.130Z,42.49
2023-04-08T21:17:34.201Z,43.12
2023-04-08T21:20:03.006Z,43.26
2023-04-08T21:22:32.277Z,43.70
2023-04-08T21:25:00.357Z,43.07
2023-04-08T21:27:29.729Z,43.49
2023-04-08T21:29:57.935Z,42.89
2023-04-08T21:32:30.084Z,43.88
2023-04-08T21:34:59.000Z,43.88
2023-04-08T21:37:27.074Z,43.93
2023-04-08T21:39:55.109Z,44.56
2023-04-08T21:42:25.174Z,44.16
2023-04-08T21:44:53.470Z,44.23
2023-04-08T21:47:21.590Z,43.81
2023-04-08T21:49:51.194Z,45.14
2023-04-08T21:52:19.316Z,44.60
2023-04-08T21:54:50.791Z,44.49
2023-04-08T21:57:19.171Z,45.12
2023-04-08T21:59:47.320Z,44.80
2023-04-08T22:02:16.035Z,44.54
2023-04-08T22:04:44.831Z,44.15
2023-04-08T22:07:14.525Z,44.61
2023-04-08T22:09:43.053Z,44.81
2023-04-08T22:12:12.047Z,44.07
2023-04-08T22:14:40.691Z,44.87
2023-04-08T22:17:09.518Z,44.75
2023-04-08T22:19:37.640Z,44.08
2023-04-08T22:22:05.742Z,44.59
2023-04-08T22:24:35.885Z,45.10
2023-04-08T22:27:04.744Z,44.51
2023-04-08T22:29:32.926Z,44.42
2023-04-08T22:32:01.350Z,45.55
2023-04-08T22:34:29.762Z,44.80
2023-04-08T22:36:59.139Z,45.25
2023-04-08T22:39:27.811Z,44.51
2023-04-08T22:41:57.602Z,44.98
2023-04-08T22:44:25.938Z,44.56
2023-04-08T22:46:54.712Z,44.88
2023-04-08T22:49:22.901Z,44.61
2023-04-08T22:51:51.529Z,44.75
2023-04-08T22:54:19.854Z,45.42
2023-04-08T22:56:47.988Z,44.47
2023-04-08T22:59:17.660Z,44.91
2023-04-08T23:01:46.094Z,44.27
2023-04-08T23:04:14.389Z,44.37
2023-04-08T23:06:42.586Z,44.92
2023-04-08T23:09:10.943Z,45.27
2023-04-08T23:11:39.765Z,45.03
2023-04-08T23:14:07.832Z,44.90
2023-04-08T23:16:37.282Z,44.20
2023-04-08T23:19:05.484Z,44.45
2023-04-08T23:21:33.628Z,44.89
2023-04-08T23:24:02.123Z,44.88
2023-04-08T23:26:30.219Z,44.86
2023-04-08T23:28:58.608Z,44.51
2023-04-08T23:31:26.841Z,43.92
2023-04-08T23:33:56.393Z,44.49
2023-04-08T23:36:24.427Z,44.46
2023-04-08T23:38:52.758Z,44.06
2023-04-08T23:41:21.201Z,44.61
2023-04-08T23:43:49.308Z,44.46
2023-04-08T23:46:17.557Z,44.80
2023-04-08T23:48:45.785Z,44.55
2023-04-08T23:51:15.658Z,45.22
2023-04-08T23:53:43.749Z,45.79
2023-04-08T23:56:11.814Z,45.86
2023-04-08T23:58:40.038Z,46.41
